Time;durP1;ratioP1;P1;durP2;ratioP2;P2;SDS_P1;SDS_P2;PMS_P1;PMS_P2;Temp;Humidity;BMP_temperature;BMP_pressure;BME280_temperature;BME280_humidity;BME280_pressure;Samples;Min_cycle;Max_cycle;Signal;HPM_P1;HPM_P2
2022/07/20 00:01:55;;;;;;;3.88;2.60;;;;;;;;;;6184660;23;20028;-90
2022/07/20 00:04:21;;;;;;;6.55;2.83;;;;;;;;;;6184294;23;20016;-90
2022/07/20 00:06:47;;;;;;;2.80;2.40;;;;;;;;;;6184603;23;20008;-90
2022/07/20 00:11:58;;;;;;;3.25;2.67;;;;;;;;;;6184461;23;20036;-89
2022/07/20 00:14:24;;;;;;;3.35;2.80;;;;;;;;;;6182939;23;20005;-90
2022/07/20 00:16:50;;;;;;;2.60;2.40;;;;;;;;;;6184948;23;20367;-91
2022/07/20 00:19:17;;;;;;;4.75;3.20;;;;;;;;;;6183434;23;20015;-90
2022/07/20 00:21:43;;;;;;;12.55;3.30;;;;;;;;;;6184821;23;20332;-89
2022/07/20 00:24:09;;;;;;;3.00;2.70;;;;;;;;;;6184271;23;20008;-91
2022/07/20 00:26:35;;;;;;;3.10;2.90;;;;;;;;;;6184328;23;20001;-89
2022/07/20 00:29:01;;;;;;;2.70;2.42;;;;;;;;;;6183747;23;20486;-90
2022/07/20 00:31:27;;;;;;;3.92;3.33;;;;;;;;;;6182984;23;20055;-91
2022/07/20 00:33:53;;;;;;;3.38;3.08;;;;;;;;;;6182627;23;20067;-92
2022/07/20 00:36:19;;;;;;;3.25;2.33;;;;;;;;;;6184554;23;20005;-89
2022/07/20 00:38:45;;;;;;;3.13;2.88;;;;;;;;;;6184704;23;20001;-89
2022/07/20 00:41:12;;;;;;;7.80;3.67;;;;;;;;;;6184121;23;20079;-90
2022/07/20 00:44:00;;;;;;;10.98;3.20;;;;;;;;;;6183895;23;20005;-92
2022/07/20 00:46:28;;;;;;;3.55;3.13;;;26.50;46.50;;;;;;6184590;23;20036;-91
2022/07/20 00:48:54;;;;;;;3.50;2.63;;;;;;;;;;6183859;23;20009;-90
2022/07/20 00:51:20;;;;;;;5.00;2.80;;;;;;;;;;6185008;23;20015;-92
2022/07/20 00:53:46;;;;;;;4.00;2.95;;;;;;;;;;6182408;23;20001;-90
2022/07/20 00:56:15;;;;;;;3.80;2.80;;;26.30;47.90;;;;;;6184239;23;20005;-90
2022/07/20 00:58:41;;;;;;;7.30;3.70;;;;;;;;;;6184402;23;20013;-90
2022/07/20 01:01:07;;;;;;;4.05;3.28;;;;;;;;;;6182064;23;20131;-91
2022/07/20 01:03:33;;;;;;;3.65;3.20;;;;;;;;;;6183931;23;20011;-92
2022/07/20 01:06:00;;;;;;;3.08;2.78;;;;;;;;;;6184191;23;20009;-90
2022/07/20 01:08:26;;;;;;;5.65;2.90;;;;;;;;;;6183654;23;20011;-89
2022/07/20 01:10:52;;;;;;;4.43;2.93;;;;;;;;;;6184179;23;20455;-89
2022/07/20 01:13:18;;;;;;;4.25;3.25;;;;;;;;;;6183739;23;20581;-88
2022/07/20 01:15:45;;;;;;;4.53;2.78;;;;;;;;;;6183624;23;20038;-89
2022/07/20 01:18:11;;;;;;;3.17;2.88;;;;;;;;;;6183584;23;20021;-88
2022/07/20 01:20:43;;;;;;;5.40;2.63;;;26.40;46.90;;;;;;6183287;23;20031;-89
2022/07/20 01:23:09;;;;;;;5.80;3.38;;;;;;;;;;6182217;23;20347;-88
2022/07/20 01:25:36;;;;;;;3.92;3.38;;;;;;;;;;6183325;23;20072;-88
2022/07/20 01:28:05;;;;;;;4.18;3.15;;;;;;;;;;6183747;23;20013;-89
2022/07/20 01:30:31;;;;;;;3.50;3.20;;;;;;;;;;6183671;23;20165;-89
2022/07/20 01:32:57;;;;;;;3.65;2.60;;;;;;;;;;6183044;23;20036;-89
2022/07/20 01:35:23;;;;;;;3.90;3.42;;;;;;;;;;6183480;23;20033;-88
2022/07/20 01:37:49;;;;;;;5.10;3.25;;;;;;;;;;6181753;23;20396;-88
2022/07/20 01:40:15;;;;;;;3.00;2.63;;;;;;;;;;6183877;23;20028;-90
2022/07/20 01:42:41;;;;;;;2.90;2.67;;;;;;;;;;6183777;23;20081;-90
2022/07/20 01:45:07;;;;;;;3.22;2.92;;;;;;;;;;6183673;23;20428;-89
2022/07/20 01:47:33;;;;;;;3.95;3.50;;;;;;;;;;6183402;23;20550;-89
2022/07/20 01:50:00;;;;;;;6.40;3.60;;;;;;;;;;6182879;23;20013;-89
2022/07/20 01:52:26;;;;;;;4.47;3.17;;;;;;;;;;6183966;23;20005;-89
2022/07/20 01:54:52;;;;;;;4.38;3.65;;;;;;;;;;6183594;23;20432;-89
2022/07/20 01:57:18;;;;;;;4.22;3.65;;;;;;;;;;6183187;23;20002;-92
2022/07/20 01:59:44;;;;;;;3.60;3.13;;;;;;;;;;6183516;23;20005;-93
2022/07/20 02:02:10;;;;;;;6.43;3.30;;;;;;;;;;6181864;23;20016;-91
2022/07/20 02:04:36;;;;;;;3.65;3.30;;;;;;;;;;6183758;23;20001;-90
2022/07/20 02:07:02;;;;;;;3.10;2.85;;;;;;;;;;6183687;23;20011;-91
2022/07/20 02:09:28;;;;;;;4.85;3.50;;;;;;;;;;6183616;23;20088;-93
2022/07/20 02:11:54;;;;;;;5.88;3.33;;;;;;;;;;6183484;23;20506;-92
2022/07/20 02:14:20;;;;;;;4.43;4.03;;;;;;;;;;6183212;23;20009;-91
2022/07/20 02:16:46;;;;;;;3.53;3.25;;;;;;;;;;6183388;23;20005;-91
2022/07/20 02:19:13;;;;;;;3.92;3.55;;;;;;;;;;6182050;23;20056;-90
2022/07/20 02:21:39;;;;;;;4.60;3.67;;;;;;;;;;6184768;23;20012;-91
2022/07/20 02:24:05;;;;;;;4.60;3.85;;;25.10;71.00;;;;;;6183701;23;20387;-91
2022/07/20 02:26:31;;;;;;;6.28;3.28;;;;;;;;;;6184166;23;20009;-90
2022/07/20 02:28:57;;;;;;;3.75;3.40;;;;;;;;;;6185000;23;20347;-90
2022/07/20 02:31:23;;;;;;;4.85;4.45;;;;;;;;;;6185370;23;20009;-92
2022/07/20 02:33:50;;;;;;;4.15;3.75;;;;;;;;;;6184876;23;20001;-90
2022/07/20 02:36:16;;;;;;;3.83;3.50;;;;;;;;;;6183634;23;20009;-92
2022/07/20 02:38:42;;;;;;;4.90;4.07;;;;;;;;;;6182657;23;20044;-90
2022/07/20 02:41:08;;;;;;;4.18;3.88;;;;;;;;;;6184954;23;19997;-91
2022/07/20 02:43:34;;;;;;;10.35;4.78;;;;;;;;;;6183553;23;20001;-92
2022/07/20 02:46:01;;;;;;;4.88;4.40;;;;;;;;;;6185283;23;20424;-92
2022/07/20 02:48:27;;;;;;;5.47;4.97;;;;;;;;;;6185421;23;20005;-91
2022/07/20 02:50:52;;;;;;;5.22;4.72;;;;;;;;;;6183407;23;20009;-91
2022/07/20 02:53:19;;;;;;;5.97;4.43;;;;;;;;;;6183827;23;20642;-90
2022/07/20 02:55:45;;;;;;;5.55;5.05;;;;;;;;;;6183534;23;20099;-91
2022/07/20 02:58:12;;;;;;;4.55;4.13;;;24.50;52.90;;;;;;6185115;23;20005;-90
2022/07/20 03:00:38;;;;;;;5.15;4.65;;;;;;;;;;6183504;23;20392;-92
2022/07/20 03:03:05;;;;;;;4.65;4.25;;;;;;;;;;6185208;23;20009;-91
2022/07/20 03:05:31;;;;;;;5.47;4.95;;;;;;;;;;6185416;23;20009;-91
2022/07/20 03:07:57;;;;;;;5.10;4.70;;;;;;;;;;6183362;23;20043;-90
2022/07/20 03:10:23;;;;;;;5.40;5.00;;;;;;;;;;6184725;23;20013;-91
2022/07/20 03:12:49;;;;;;;8.10;6.97;;;;;;;;;;6184540;23;20037;-91
2022/07/20 03:15:16;;;;;;;11.43;6.65;;;;;;;;;;6185024;23;20006;-92
2022/07/20 03:17:45;;;;;;;5.60;5.10;;;;;;;;;;6183735;23;20013;-91
2022/07/20 03:20:13;;;;;;;7.80;7.03;;;24.20;54.60;;;;;;6184239;23;20075;-91
2022/07/20 03:22:39;;;;;;;9.85;5.85;;;;;;;;;;6184880;23;20072;-91
2022/07/20 03:25:06;;;;;;;6.57;5.57;;;;;;;;;;6185081;23;20020;-90
2022/07/20 03:27:32;;;;;;;14.07;6.97;;;;;;;;;;6182162;23;20064;-80
2022/07/20 03:29:58;;;;;;;8.15;7.43;;;;;;;;;;6182355;23;20017;-80
2022/07/20 03:32:24;;;;;;;10.60;7.22;;;;;;;;;;6181983;23;20001;-80
2022/07/20 03:34:50;;;;;;;11.45;9.02;;;;;;;;;;6182749;23;20005;-80
2022/07/20 03:37:16;;;;;;;12.35;8.98;;;;;;;;;;6182350;23;20451;-80
2022/07/20 03:39:42;;;;;;;18.63;10.23;;;;;;;;;;6182370;23;20009;-80
2022/07/20 03:42:08;;;;;;;11.57;9.68;;;;;;;;;;6182218;23;20012;-81
2022/07/20 03:44:34;;;;;;;13.00;10.20;;;;;;;;;;6182787;23;20020;-80
2022/07/20 03:47:00;;;;;;;12.18;10.20;;;;;;;;;;6182217;23;20004;-81
2022/07/20 03:49:25;;;;;;;9.27;8.07;;;;;;;;;;6181644;23;20044;-81
2022/07/20 03:51:51;;;;;;;8.07;7.00;;;;;;;;;;6182460;23;20009;-80
2022/07/20 03:54:17;;;;;;;12.77;8.02;;;;;;;;;;6182280;23;20008;-81
2022/07/20 03:56:43;;;;;;;16.38;8.95;;;;;;;;;;6181884;23;20021;-81
2022/07/20 03:59:10;;;;;;;12.98;9.70;;;;;;;;;;6182642;23;20071;-81
2022/07/20 04:01:36;;;;;;;12.40;9.77;;;;;;;;;;6182473;23;20309;-80
2022/07/20 04:04:02;;;;;;;17.13;11.23;;;;;;;;;;6182358;23;20029;-81
2022/07/20 04:06:28;;;;;;;17.65;10.45;;;;;;;;;;6181989;23;20009;-80
2022/07/20 04:08:54;;;;;;;12.95;11.32;;;;;;;;;;6181208;23;20020;-80
2022/07/20 04:11:20;;;;;;;13.80;11.65;;;;;;;;;;6182198;23;20001;-81
2022/07/20 04:13:46;;;;;;;21.15;12.45;;;;;;;;;;6182188;23;20075;-81
2022/07/20 04:16:12;;;;;;;19.20;13.75;;;;;;;;;;6182162;23;20009;-81
2022/07/20 04:18:38;;;;;;;16.20;13.05;;;;;;;;;;6181720;23;20012;-80
2022/07/20 04:21:04;;;;;;;20.67;12.68;;;;;;;;;;6182050;23;20001;-80
2022/07/20 04:23:30;;;;;;;15.15;12.70;;;;;;;;;;6180087;23;20506;-80
2022/07/20 04:25:56;;;;;;;17.38;12.73;;;;;;;;;;6182113;23;20123;-81
2022/07/20 04:28:22;;;;;;;21.20;14.13;;;23.60;61.90;;;;;;6180748;23;20035;-81
2022/07/20 04:30:48;;;;;;;22.67;13.10;;;;;;;;;;6182111;23;20005;-81
2022/07/20 04:33:14;;;;;;;13.25;11.27;;;;;;;;;;6182061;23;19997;-81
2022/07/20 04:35:40;;;;;;;13.15;11.75;;;23.60;80.10;;;;;;6180253;23;20025;-81
2022/07/20 04:38:06;;;;;;;12.95;11.65;;;;;;;;;;6181758;23;20055;-81
2022/07/20 04:40:32;;;;;;;14.45;12.93;;;;;;;;;;6181811;23;20002;-80
2022/07/20 04:42:58;;;;;;;14.52;10.60;;;;;;;;;;6181427;23;20076;-80
2022/07/20 04:45:24;;;;;;;15.43;12.73;;;;;;;;;;6181226;23;20000;-80
2022/07/20 04:47:50;;;;;;;16.27;13.93;;;23.60;77.60;;;;;;6181498;23;20024;-80
2022/07/20 04:50:16;;;;;;;15.32;12.13;;;;;;;;;;6181340;23;20348;-80
2022/07/20 04:52:42;;;;;;;12.00;10.88;;;;;;;;;;6181298;23;20032;-80
2022/07/20 04:55:08;;;;;;;15.60;12.32;;;;;;;;;;6181701;23;20012;-81
2022/07/20 04:57:34;;;;;;;17.80;15.43;;;;;;;;;;6181590;23;20020;-80
2022/07/20 05:00:00;;;;;;;19.90;14.63;;;;;;;;;;6181973;23;20012;-80
2022/07/20 05:02:26;;;;;;;24.88;14.70;;;;;;;;;;6181443;23;20008;-80
2022/07/20 05:04:52;;;;;;;24.38;14.52;;;;;;;;;;6181174;23;20016;-81
2022/07/20 05:07:18;;;;;;;17.80;13.32;;;;;;;;;;6181296;23;19997;-81
2022/07/20 05:09:44;;;;;;;20.25;12.60;;;;;;;;;;6181484;23;20016;-81
2022/07/20 05:12:10;;;;;;;18.27;13.23;;;;;;;;;;6181515;23;20017;-80
2022/07/20 05:14:36;;;;;;;20.95;12.73;;;;;;;;;;6181802;23;20094;-81
2022/07/20 05:17:02;;;;;;;18.25;13.85;;;;;;;;;;6181426;23;20499;-80
2022/07/20 05:19:28;;;;;;;20.73;12.48;;;;;;;;;;6181119;23;20001;-81
2022/07/20 05:21:56;;;;;;;20.23;13.65;;;;;;;;;;6180970;23;20055;-81
2022/07/20 05:24:22;;;;;;;19.50;12.43;;;;;;;;;;6181090;23;20009;-80
2022/07/20 05:26:48;;;;;;;18.15;12.00;;;;;;;;;;6181122;23;20005;-81
2022/07/20 05:29:14;;;;;;;16.52;13.18;;;;;;;;;;6181538;23;20033;-81
2022/07/20 05:31:40;;;;;;;26.15;15.68;;;;;;;;;;6179455;23;20087;-81
2022/07/20 05:34:06;;;;;;;16.75;13.77;;;;;;;;;;6181268;23;20013;-81
2022/07/20 05:36:33;;;;;;;22.55;13.93;;;;;;;;;;6180442;23;20647;-93
2022/07/20 05:38:58;;;;;;;21.17;13.85;;;;;;;;;;6183977;23;20027;-92
2022/07/20 05:41:24;;;;;;;20.67;14.32;;;;;;;;;;6183573;23;20013;-93
2022/07/20 05:43:50;;;;;;;30.23;17.95;;;;;;;;;;6184333;23;20012;-93
2022/07/20 05:46:17;;;;;;;24.95;12.50;;;;;;;;;;6182407;23;20455;-93
2022/07/20 05:48:43;;;;;;;19.40;13.07;;;;;;;;;;6183458;23;20084;-93
2022/07/20 05:51:09;;;;;;;18.02;12.70;;;;;;;;;;6183748;23;20029;-92
2022/07/20 05:53:34;;;;;;;19.35;13.15;;;;;;;;;;6183066;23;20012;-93
2022/07/20 05:56:00;;;;;;;21.13;14.15;;;;;;;;;;6184340;23;20008;-93
2022/07/20 05:58:26;;;;;;;21.17;13.02;;;;;;;;;;6181852;23;20009;-93
2022/07/20 06:00:52;;;;;;;18.30;13.02;;;;;;;;;;6183052;23;20045;-93
2022/07/20 06:03:18;;;;;;;19.27;12.73;;;;;;;;;;6183858;23;20013;-93
2022/07/20 06:05:45;;;;;;;22.98;13.63;;;;;;;;;;6182929;23;20009;-91
2022/07/20 06:08:11;;;;;;;24.40;13.63;;;;;;;;;;6184144;23;20040;-92
2022/07/20 06:10:37;;;;;;;17.50;11.95;;;;;;;;;;6182475;23;20099;-91
2022/07/20 06:13:04;;;;;;;21.17;13.35;;;26.10;64.60;;;;;;6183932;23;20100;-92
2022/07/20 06:15:30;;;;;;;24.75;13.75;;;;;;;;;;6180424;23;20016;-84
2022/07/20 06:17:56;;;;;;;36.33;14.90;;;;;;;;;;6177423;23;19998;-84
2022/07/20 06:20:23;;;;;;;26.13;14.63;;;26.60;64.10;;;;;;6178939;23;20001;-82
2022/07/20 06:22:49;;;;;;;35.17;16.02;;;;;;;;;;6180560;23;20084;-84
2022/07/20 06:25:16;;;;;;;20.00;15.18;;;;;;;;;;6180472;23;20005;-84
2022/07/20 06:27:42;;;;;;;20.83;12.38;;;;;;;;;;6179709;23;20001;-85
2022/07/20 06:30:10;;;;;;;27.65;13.20;;;26.20;65.60;;;;;;6181503;23;20075;-90
2022/07/20 06:32:36;;;;;;;29.38;14.93;;;;;;;;;;6183080;23;20104;-90
2022/07/20 06:35:02;;;;;;;27.00;14.05;;;;;;;;;;6182190;23;20005;-88
2022/07/20 06:37:28;;;;;;;32.83;16.30;;;;;;;;;;6181803;23;20001;-89
2022/07/20 06:39:54;;;;;;;21.33;13.27;;;;;;;;;;6180760;23;20352;-89
2022/07/20 06:42:20;;;;;;;21.90;14.18;;;;;;;;;;6182002;23;19997;-89
2022/07/20 06:44:46;;;;;;;24.03;13.33;;;;;;;;;;6182764;23;20024;-90
2022/07/20 06:47:12;;;;;;;20.13;12.23;;;;;;;;;;6182544;23;20451;-88
2022/07/20 06:49:38;;;;;;;18.15;12.18;;;;;;;;;;6182279;23;20017;-89
2022/07/20 06:52:04;;;;;;;22.75;12.88;;;;;;;;;;6182200;23;20009;-89
2022/07/20 06:54:30;;;;;;;23.85;12.40;;;;;;;;;;6181315;23;20009;-88
2022/07/20 06:56:56;;;;;;;18.00;11.73;;;;;;;;;;6182150;23;20009;-90
2022/07/20 06:59:23;;;;;;;25.48;13.95;;;;;;;;;;6180228;23;20024;-90
2022/07/20 07:01:49;;;;;;;17.90;11.30;;;;;;;;;;6181502;23;20037;-90
2022/07/20 07:04:15;;;;;;;19.90;10.57;;;;;;;;;;6183226;23;20040;-91
2022/07/20 07:06:41;;;;;;;20.13;11.35;;;;;;;;;;6181789;23;20005;-90
2022/07/20 07:09:07;;;;;;;16.05;10.52;;;;;;;;;;6184859;23;20084;-90
2022/07/20 07:11:33;;;;;;;16.65;9.98;;;;;;;;;;6183461;23;20036;-90
2022/07/20 07:13:58;;;;;;;;;;;31.60;52.80;;;;;;6185672;23;20020;-91
2022/07/20 07:16:25;;;;;;;17.38;9.40;;;;;;;;;;6184185;23;19911;-89
2022/07/20 07:18:51;;;;;;;17.52;10.25;;;;;;;;;;6184874;23;20339;-92
2022/07/20 07:21:17;;;;;;;19.08;8.88;;;;;;;;;;6182537;23;20510;-88
2022/07/20 07:23:49;;;;;;;20.55;10.98;;;;;;;;;;6183200;23;20573;-88
2022/07/20 07:26:15;;;;;;;14.27;9.60;;;;;;;;;;6184687;23;20008;-90
2022/07/20 07:28:41;;;;;;;14.57;9.63;;;;;;;;;;6184889;23;20033;-90
2022/07/20 07:31:06;;;;;;;;;;;31.10;52.60;;;;;;6184678;23;20563;-91
2022/07/20 07:33:32;;;;;;;15.15;9.05;;;;;;;;;;6185102;23;19904;-91
2022/07/20 07:35:58;;;;;;;;;;;30.80;53.30;;;;;;6185388;23;20005;-91
2022/07/20 07:38:24;;;;;;;17.00;9.38;;;;;;;;;;6183296;23;19904;-90
2022/07/20 07:40:49;;;;;;;;;;;30.90;53.10;;;;;;6184712;23;20068;-89
2022/07/20 07:43:15;;;;;;;20.80;10.07;;;;;;;;;;6181324;23;19908;-88
2022/07/20 07:45:41;;;;;;;13.15;9.40;;;;;;;;;;6184506;23;20005;-88
2022/07/20 07:48:10;;;;;;;15.32;9.45;;;;;;;;;;6183331;23;20028;-87
2022/07/20 07:50:37;;;;;;;11.95;8.15;;;;;;;;;;6182025;23;20017;-88
2022/07/20 07:53:03;;;;;;;20.00;10.88;;;;;;;;;;6180693;23;20069;-87
2022/07/20 07:55:29;;;;;;;18.98;8.80;;;;;;;;;;6180693;23;20400;-88
2022/07/20 07:57:54;;;;;;;;;;;32.60;49.90;;;;;;6180848;23;20005;-86
2022/07/20 08:00:20;;;;;;;19.00;8.13;;;;;;;;;;6181174;23;19939;-88
2022/07/20 08:02:46;;;;;;;;;;;33.60;47.00;;;;;;6183982;23;20063;-87
2022/07/20 08:05:12;;;;;;;28.88;8.90;;;;;;;;;;6181869;23;19900;-88
2022/07/20 08:07:40;;;;;;;12.90;8.50;;;;;;;;;;6181693;23;20402;-90
2022/07/20 08:10:06;;;;;;;15.60;7.95;;;;;;;;;;6182542;23;20025;-89
2022/07/20 08:12:32;;;;;;;16.05;8.68;;;;;;;;;;6183474;23;20105;-89
2022/07/20 08:14:58;;;;;;;13.70;7.22;;;;;;;;;;6182053;23;20032;-89
2022/07/20 08:17:24;;;;;;;14.63;8.93;;;;;;;;;;6182613;23;20025;-90
2022/07/20 08:19:50;;;;;;;14.70;7.78;;;;;;;;;;6182864;23;20012;-88
2022/07/20 08:22:16;;;;;;;15.95;8.75;;;;;;;;;;6183159;23;20068;-90
2022/07/20 08:24:42;;;;;;;14.80;8.70;;;;;;;;;;6183525;23;20060;-89
2022/07/20 08:27:07;;;;;;;16.63;9.80;;;;;;;;;;6182684;23;20005;-89
2022/07/20 08:29:33;;;;;;;18.43;10.00;;;;;;;;;;6182378;23;20823;-90
2022/07/20 08:31:59;;;;;;;14.77;9.53;;;;;;;;;;6182975;23;20225;-89
2022/07/20 08:34:25;;;;;;;19.13;9.03;;;;;;;;;;6182378;23;20303;-88
2022/07/20 08:36:51;;;;;;;16.08;8.98;;;;;;;;;;6182156;23;20148;-88
2022/07/20 08:39:18;;;;;;;13.73;8.73;;;;;;;;;;6182510;23;20001;-89
2022/07/20 08:41:45;;;;;;;19.98;9.23;;;33.50;48.60;;;;;;6182394;23;20005;-88
2022/07/20 08:44:11;;;;;;;16.83;8.05;;;;;;;;;;6181340;23;20453;-88
2022/07/20 08:46:37;;;;;;;16.23;9.48;;;;;;;;;;6182363;23;20604;-89
2022/07/20 08:49:04;;;;;;;12.13;7.30;;;33.40;47.80;;;;;;6180872;23;20039;-89
2022/07/20 08:51:30;;;;;;;12.02;6.68;;;;;;;;;;6181614;23;20005;-91
2022/07/20 08:53:56;;;;;;;13.85;6.22;;;;;;;;;;6189013;23;20469;-92
2022/07/20 08:56:23;;;;;;;16.75;6.47;;;;;;;;;;6180080;23;20036;-90
2022/07/20 08:58:49;;;;;;;9.10;5.53;;;;;;;;;;6185003;23;20440;-92
2022/07/20 09:01:16;;;;;;;11.17;5.90;;;30.50;57.30;;;;;;6185900;23;20009;-91
2022/07/20 09:03:44;;;;;;;;;;;;;;;;;;6183978;23;20452;-90
2022/07/20 09:06:10;;;;;;;6.95;4.60;;;;;;;;;;6184293;23;20334;-92
2022/07/20 09:08:57;;;;;;;10.55;6.03;;;30.50;57.20;;;;;;6182922;23;20001;-92
2022/07/20 09:11:24;;;;;;;;;;;31.10;55.50;;;;;;6183122;23;20021;-91
2022/07/20 09:13:50;;;;;;;10.98;5.63;;;;;;;;;;6183711;23;19900;-91
2022/07/20 09:16:33;;;;;;;12.47;6.63;;;32.30;52.50;;;;;;6184429;23;20001;-92
2022/07/20 09:18:59;;;;;;;9.05;5.10;;;;;;;;;;6183892;23;20009;-90
2022/07/20 09:21:30;;;;;;;8.00;4.90;;;32.00;52.50;;;;;;6183795;23;20044;-92
2022/07/20 09:23:56;;;;;;;9.45;4.70;;;;;;;;;;6184728;23;20009;-92
2022/07/20 09:26:24;;;;;;;11.50;5.05;;;;;;;;;;6181700;23;20004;-87
2022/07/20 09:28:55;;;;;;;16.85;5.38;;;32.10;50.90;;;;;;6180087;23;20013;-87
2022/07/20 09:31:25;;;;;;;7.60;5.15;;;32.80;54.90;;;;;;6180354;23;20001;-87
2022/07/20 09:33:57;;;;;;;11.00;6.07;;;32.90;50.40;;;;;;6180893;23;20016;-90
2022/07/20 09:36:26;;;;;;;11.45;5.35;;;33.70;48.90;;;;;;6180818;23;20005;-86
2022/07/20 09:38:53;;;;;;;10.07;5.30;;;;;;;;;;6178362;23;20062;-86
2022/07/20 09:41:27;;;;;;;13.02;4.72;;;34.80;47.20;;;;;;6179861;23;20347;-86
2022/07/20 09:43:54;;;;;;;10.50;4.50;;;35.60;45.50;;;;;;6180339;23;20005;-85
2022/07/20 09:46:24;;;;;;;;;;;36.30;44.50;;;;;;6178870;23;20348;-85
2022/07/20 09:48:51;;;;;;;8.65;4.20;;;36.50;44.40;;;;;;6178904;23;20430;-85
2022/07/20 09:51:23;;;;;;;11.05;4.38;;;;;;;;;;6179978;23;20333;-84
2022/07/20 09:53:50;;;;;;;8.18;4.70;;;37.40;42.80;;;;;;6179690;23;20009;-85
2022/07/20 09:56:17;;;;;;;8.40;4.63;;;;;;;;;;6177651;23;20005;-86
2022/07/20 09:58:49;;;;;;;10.60;4.47;;;37.30;42.70;;;;;;6180516;23;20092;-86
2022/07/20 10:01:18;;;;;;;9.52;5.05;;;37.20;42.50;;;;;;6180759;23;20384;-88
2022/07/20 10:03:46;;;;;;;9.55;5.22;;;;;;;;;;6180137;23;20079;-87
2022/07/20 10:06:12;;;;;;;9.23;4.57;;;;;;;;;;6179649;23;20001;-88
2022/07/20 10:08:38;;;;;;;6.60;4.70;;;;;;;;;;6179133;23;20447;-87
2022/07/20 10:11:04;;;;;;;11.70;4.50;;;;;;;;;;6180616;23;20100;-87
2022/07/20 10:13:31;;;;;;;6.95;4.18;;;;;;;;;;6180951;23;20001;-87
2022/07/20 10:16:01;;;;;;;10.45;4.93;;;;;;;;;;6180138;23;20013;-87
2022/07/20 10:18:28;;;;;;;9.88;5.25;;;;;;;;;;6181068;23;20012;-87
2022/07/20 10:20:54;;;;;;;9.40;4.68;;;;;;;;;;6180757;23;20351;-88
2022/07/20 10:23:22;;;;;;;8.23;3.60;;;;;;;;;;6179724;23;20076;-88
2022/07/20 10:25:48;;;;;;;7.47;5.50;;;;;;;;;;6180639;23;20001;-88
2022/07/20 10:28:27;;;;;;;12.18;5.35;;;37.90;59.00;;;;;;6180765;23;20463;-88
2022/07/20 10:30:58;;;;;;;11.00;6.25;;;42.50;43.80;;;;;;6181120;23;20514;-88
2022/07/20 10:33:25;;;;;;;9.07;5.30;;;38.30;40.60;;;;;;6178455;23;20036;-87
2022/07/20 10:36:41;;;;;;;10.13;5.68;;;38.30;40.60;;;;;;6180823;23;20515;-88
2022/07/20 10:38:39;;;;;;;8.63;4.93;;;;;;;;;;6180299;23;20008;-87
2022/07/20 10:44:21;;;;;;;10.25;5.63;;;39.60;39.40;;;;;;6182197;23;20470;-86
2022/07/20 10:46:48;;;;;;;12.77;5.88;;;39.60;38.60;;;;;;6181721;23;20493;-87
2022/07/20 10:49:15;;;;;;;8.98;6.35;;;;;;;;;;6179906;23;20017;-88
2022/07/20 10:51:40;;;;;;;;;;;39.40;39.40;;;;;;6181087;23;20032;-85
2022/07/20 10:54:31;;;;;;;11.13;6.20;;;39.00;40.30;;;;;;6181307;23;19953;-87
2022/07/20 10:57:01;;;;;;;9.82;5.93;;;38.80;39.80;;;;;;6181523;23;20452;-87
2022/07/20 10:59:27;;;;;;;8.52;6.18;;;;;;;;;;6180048;23;20005;-86
2022/07/20 11:01:53;;;;;;;12.52;6.80;;;;;;;;;;6181127;23;20001;-87
2022/07/20 11:04:21;;;;;;;12.05;6.15;;;38.90;38.90;;;;;;6181360;23;20024;-86
2022/07/20 11:06:47;;;;;;;11.18;7.10;;;;;;;;;;6181920;23;20013;-86
2022/07/20 11:09:13;;;;;;;;;;;38.50;40.20;;;;;;6182446;23;20079;-87
2022/07/20 11:11:39;;;;;;;13.07;6.65;;;38.00;39.30;;;;;;6181392;23;19916;-86
2022/07/20 11:14:06;;;;;;;8.48;5.95;;;;;;;;;;6182016;23;20012;-87
2022/07/20 11:16:34;;;;;;;9.45;6.15;;;36.80;41.30;;;;;;6181709;23;20028;-86
2022/07/20 11:19:01;;;;;;;13.25;6.97;;;;;;;;;;6181042;23;20523;-87
2022/07/20 11:21:38;;;;;;;11.70;6.40;;;35.80;43.30;;;;;;6181781;23;20027;-87
2022/07/20 11:24:25;;;;;;;13.82;8.00;;;35.80;43.40;;;;;;6180740;23;20444;-86
2022/07/20 11:26:52;;;;;;;8.63;5.57;;;;;;;;;;6181891;23;20005;-86
2022/07/20 11:29:18;;;;;;;7.80;5.68;;;;;;;;;;6182095;23;20017;-87
2022/07/20 11:31:44;;;;;;;7.22;4.55;;;;;;;;;;6181559;23;20028;-87
2022/07/20 11:34:13;;;;;;;5.95;4.57;;;35.10;41.50;;;;;;6181629;23;20005;-87
2022/07/20 11:36:39;;;;;;;11.05;4.72;;;;;;;;;;6180739;23;20451;-87
2022/07/20 11:39:07;;;;;;;8.90;4.60;;;;;;;;;;6180973;23;20028;-86
2022/07/20 11:41:37;;;;;;;10.35;3.10;;;35.10;41.10;;;;;;6182034;23;20012;-86
2022/07/20 11:44:03;;;;;;;4.75;3.25;;;;;;;;;;6182301;23;20009;-86
2022/07/20 11:46:37;;;;;;;6.10;3.17;;;35.10;40.10;;;;;;6179543;23;20012;-86
2022/07/20 11:49:05;;;;;;;5.65;3.70;;;;;;;;;;6181699;23;20009;-86
2022/07/20 11:51:32;;;;;;;7.88;3.25;;;;;;;;;;6181770;23;20124;-85
2022/07/20 11:53:58;;;;;;;4.97;3.35;;;;;;;;;;6180657;23;20064;-86
2022/07/20 11:56:25;;;;;;;5.85;2.63;;;;;;;;;;6180641;23;20009;-86
2022/07/20 11:58:54;;;;;;;7.05;3.85;;;35.10;39.70;;;;;;6185056;23;20059;-94
2022/07/20 12:01:22;;;;;;;5.05;3.03;;;;;;;;;;6185248;23;20005;-91
2022/07/20 12:03:59;;;;;;;9.82;3.63;;;34.90;39.90;;;;;;6185011;23;20009;-92
2022/07/20 12:06:31;;;;;;;5.88;4.03;;;34.80;40.70;;;;;;6185183;23;20087;-92
2022/07/20 12:09:10;;;;;;;7.93;4.38;;;;;;;;;;6183002;23;20055;-91
2022/07/20 12:11:52;;;;;;;7.40;4.88;;;34.70;40.80;;;;;;6185641;23;20024;-93
2022/07/20 12:14:32;;;;;;;9.02;3.88;;;34.70;40.70;;;;;;6185183;23;20012;-92
2022/07/20 12:17:28;;;;;;;5.30;3.63;;;34.90;40.90;;;;;;6185111;23;20005;-93
2022/07/20 12:19:55;;;;;;;8.30;3.85;;;;;;;;;;6182876;23;20321;-92
2022/07/20 12:22:22;;;;;;;10.90;3.63;;;34.80;40.60;;;;;;6185613;23;20201;-90
2022/07/20 12:24:55;;;;;;;;;;;34.70;40.00;;;;;;6185743;23;20016;-93
2022/07/20 12:27:22;;;;;;;5.32;2.78;;;;;;;;;;6185577;23;19927;-92
2022/07/20 12:29:48;;;;;;;9.25;4.20;;;;;;;;;;6185238;23;20602;-92
2022/07/20 12:32:17;;;;;;;8.18;3.70;;;;;;;;;;6183662;23;20008;-92
2022/07/20 12:34:49;;;;;;;8.82;4.88;;;;;;;;;;6183343;23;20001;-93
2022/07/20 12:37:15;;;;;;;10.20;3.17;;;;;;;;;;6183629;23;20562;-94
2022/07/20 12:39:42;;;;;;;4.25;3.65;;;;;;;;;;6185171;23;20013;-93
2022/07/20 12:42:11;;;;;;;7.15;5.03;;;33.60;42.00;;;;;;6183628;23;20047;-93
2022/07/20 12:44:37;;;;;;;7.80;4.68;;;;;;;;;;6185452;23;20021;-91
2022/07/20 12:47:03;;;;;;;5.40;4.00;;;;;;;;;;6185065;23;20005;-92
2022/07/20 12:49:30;;;;;;;8.65;5.32;;;;;;;;;;6184547;23;20460;-93
2022/07/20 12:51:56;;;;;;;6.88;4.10;;;33.30;43.90;;;;;;6183078;23;20750;-92
2022/07/20 12:54:23;;;;;;;8.07;4.53;;;33.30;42.50;;;;;;6184646;23;20072;-90
2022/07/20 12:56:49;;;;;;;5.68;3.95;;;;;;;;;;6184762;23;20055;-92
2022/07/20 12:59:15;;;;;;;9.13;4.30;;;;;;;;;;6184673;23;20005;-91
2022/07/20 13:01:43;;;;;;;9.82;3.92;;;;;;;;;;6185859;23;20352;-93
2022/07/20 13:04:09;;;;;;;6.28;3.22;;;;;;;;;;6184684;23;20085;-93
2022/07/20 13:06:36;;;;;;;6.57;3.90;;;33.20;42.50;;;;;;6183402;23;20031;-95
2022/07/20 13:09:03;;;;;;;9.85;4.55;;;;;;;;;;6182527;23;20017;-93
2022/07/20 13:11:30;;;;;;;4.22;3.17;;;;;;;;;;6185024;23;20017;-93
2022/07/20 13:13:56;;;;;;;8.93;4.28;;;;;;;;;;6185043;23;20001;-93
2022/07/20 13:16:22;;;;;;;31.35;6.28;;;;;;;;;;6184268;23;20702;-93
2022/07/20 13:18:48;;;;;;;28.43;4.43;;;;;;;;;;6184446;23;20439;-92
2022/07/20 13:21:14;;;;;;;8.30;4.20;;;;;;;;;;6185012;23;20311;-92
2022/07/20 13:23:41;;;;;;;7.38;4.47;;;;;;;;;;6184422;23;20084;-92
2022/07/20 13:26:07;;;;;;;7.68;5.40;;;;;;;;;;6184666;23;20009;-94
2022/07/20 13:28:34;;;;;;;6.47;4.53;;;;;;;;;;6184418;23;20009;-94
2022/07/20 13:31:00;;;;;;;5.20;4.38;;;;;;;;;;6182318;23;20059;-93
2022/07/20 13:33:27;;;;;;;13.93;4.70;;;;;;;;;;6185076;23;20021;-95
2022/07/20 13:35:54;;;;;;;5.53;3.88;;;;;;;;;;6183200;23;20237;-92
2022/07/20 13:38:20;;;;;;;8.13;4.70;;;;;;;;;;6183424;23;20036;-89
2022/07/20 13:40:48;;;;;;;7.43;4.13;;;;;;;;;;6189448;23;20013;-94
2022/07/20 13:43:14;;;;;;;6.32;4.05;;;;;;;;;;6188170;23;20014;-95
2022/07/20 13:45:40;;;;;;;7.28;4.18;;;;;;;;;;6186561;23;20001;-96
2022/07/20 13:48:06;;;;;;;5.97;3.92;;;;;;;;;;6188891;23;20424;-95
2022/07/20 13:50:32;;;;;;;8.90;3.90;;;;;;;;;;6188070;23;20144;-94
2022/07/20 13:52:58;;;;;;;6.13;3.50;;;;;;;;;;6185847;23;20009;-95
2022/07/20 13:55:24;;;;;;;7.88;4.45;;;;;;;;;;6186474;23;20290;-96
2022/07/20 13:57:50;;;;;;;9.70;4.43;;;;;;;;;;6184648;23;20108;-95
2022/07/20 14:00:17;;;;;;;7.77;3.60;;;;;;;;;;6185867;23;20016;-96
2022/07/20 14:02:43;;;;;;;4.43;3.67;;;;;;;;;;6188129;23;20009;-95
2022/07/20 14:05:09;;;;;;;9.15;3.42;;;;;;;;;;6185410;23;20004;-95
2022/07/20 14:07:35;;;;;;;6.28;3.80;;;;;;;;;;6185078;23;20475;-96
2022/07/20 14:10:02;;;;;;;4.63;3.85;;;;;;;;;;6184384;23;20021;-91
2022/07/20 14:12:28;;;;;;;8.43;4.68;;;;;;;;;;6185741;23;20092;-96
2022/07/20 14:14:54;;;;;;;6.80;4.83;;;;;;;;;;6184779;23;20340;-94
2022/07/20 14:17:20;;;;;;;7.00;4.30;;;;;;;;;;6187456;23;20216;-92
2022/07/20 14:19:46;;;;;;;6.97;4.20;;;;;;;;;;6186399;23;20009;-93